createdAt,value
2024-01-20T00:02:02.013Z,24.50
2024-01-20T00:04:36.606Z,25.50
2024-01-20T00:07:07.096Z,29.30
2024-01-20T00:09:42.858Z,23.57
2024-01-20T00:12:19.016Z,24.40
2024-01-20T00:14:48.373Z,26.63
2024-01-20T00:17:23.778Z,25.20
2024-01-20T00:19:56.288Z,27.37
2024-01-20T00:22:27.403Z,26.13
2024-01-20T00:24:57.358Z,26.20
2024-01-20T00:27:26.752Z,26.03
2024-01-20T00:29:55.810Z,25.40
2024-01-20T00:32:24.801Z,23.00
2024-01-20T00:35:04.046Z,32.10
2024-01-20T00:37:37.668Z,25.60
2024-01-20T00:40:07.856Z,27.07
2024-01-20T00:42:37.329Z,27.60
2024-01-20T00:45:06.675Z,25.00
2024-01-20T00:47:36.871Z,28.13
2024-01-20T00:50:11.769Z,28.03
2024-01-20T00:52:42.022Z,27.73
2024-01-20T00:55:11.812Z,29.50
2024-01-20T00:57:40.463Z,26.00
2024-01-20T01:00:10.885Z,28.33
2024-01-20T01:02:40.094Z,27.60
2024-01-20T01:05:09.707Z,26.83
2024-01-20T01:07:39.095Z,27.93
2024-01-20T01:10:10.140Z,25.93
2024-01-20T01:12:38.868Z,24.33
2024-01-20T01:15:08.315Z,25.40
2024-01-20T01:17:37.240Z,25.03
2024-01-20T01:20:06.895Z,28.07
2024-01-20T01:22:35.650Z,27.33
2024-01-20T01:25:05.308Z,30.73
2024-01-20T01:27:35.397Z,26.33
2024-01-20T01:30:04.286Z,24.33
2024-01-20T01:32:33.048Z,29.07
2024-01-20T01:35:04.760Z,29.67
2024-01-20T01:37:33.718Z,26.40
2024-01-20T01:40:02.282Z,27.23
2024-01-20T01:42:30.962Z,28.37
2024-01-20T01:45:01.144Z,28.77
2024-01-20T01:47:30.157Z,30.83
2024-01-20T01:49:59.133Z,27.77
2024-01-20T01:52:29.040Z,31.40
2024-01-20T01:54:59.083Z,28.50
2024-01-20T01:57:28.440Z,27.47
2024-01-20T01:59:57.859Z,32.47
2024-01-20T02:02:27.973Z,29.70
2024-01-20T02:04:56.750Z,29.57
2024-01-20T02:07:25.412Z,28.17
2024-01-20T02:09:54.227Z,31.33
2024-01-20T02:12:23.609Z,30.97
2024-01-20T02:14:52.645Z,31.07
2024-01-20T02:17:21.608Z,28.00
2024-01-20T02:19:51.844Z,28.83
2024-01-20T02:22:22.518Z,28.87
2024-01-20T02:24:52.166Z,29.33
2024-01-20T02:27:21.729Z,26.80
2024-01-20T02:29:50.514Z,26.90
2024-01-20T02:32:19.503Z,25.17
2024-01-20T02:34:48.198Z,25.37
2024-01-20T02:37:17.047Z,27.03
2024-01-20T02:39:47.119Z,26.00
2024-01-20T02:42:16.099Z,31.80
2024-01-20T02:44:44.894Z,24.43
2024-01-20T02:47:13.494Z,25.07
2024-01-20T02:49:42.561Z,29.87
2024-01-20T02:52:11.345Z,31.90
2024-01-20T02:54:40.145Z,26.50
2024-01-20T02:57:10.519Z,27.67
2024-01-20T02:59:39.181Z,28.43
2024-01-20T03:02:08.148Z,28.47
2024-01-20T03:04:36.904Z,27.37
2024-01-20T03:07:05.783Z,26.80
2024-01-20T03:09:34.773Z,26.57
2024-01-20T03:12:03.737Z,25.30
2024-01-20T03:14:33.888Z,25.17
2024-01-20T03:17:02.638Z,28.83
2024-01-20T03:19:31.366Z,26.27
2024-01-20T03:22:00.211Z,25.33
2024-01-20T03:24:28.918Z,26.07
2024-01-20T03:26:59.900Z,25.80
2024-01-20T03:29:28.782Z,24.27
2024-01-20T03:31:59.099Z,29.70
2024-01-20T03:34:28.004Z,24.90
2024-01-20T03:36:56.697Z,24.13
2024-01-20T03:39:25.394Z,24.77
2024-01-20T03:41:54.060Z,23.97
2024-01-20T03:44:23.116Z,22.20
2024-01-20T03:46:51.803Z,21.60
2024-01-20T03:49:21.991Z,22.50
2024-01-20T03:51:50.771Z,25.00
2024-01-20T03:54:19.431Z,21.90
2024-01-20T03:56:48.078Z,25.93
2024-01-20T03:59:16.779Z,25.57
2024-01-20T04:01:45.490Z,19.80
2024-01-20T04:04:14.162Z,21.70
2024-01-20T04:06:44.332Z,20.40
2024-01-20T04:09:13.419Z,23.00
2024-01-20T04:11:42.103Z,20.63
2024-01-20T04:14:10.802Z,20.50
2024-01-20T04:16:39.628Z,24.40
2024-01-20T04:19:08.402Z,21.17
2024-01-20T04:21:37.132Z,22.63
2024-01-20T04:24:07.631Z,21.13
2024-01-20T04:26:36.340Z,20.90
2024-01-20T04:29:04.998Z,21.33
2024-01-20T04:31:33.627Z,21.70
2024-01-20T04:34:02.298Z,16.67
2024-01-20T04:36:31.090Z,22.43
2024-01-20T04:38:59.738Z,24.57
2024-01-20T04:41:30.209Z,20.13
2024-01-20T04:43:58.847Z,21.57
2024-01-20T04:46:27.542Z,26.53
2024-01-20T04:48:56.407Z,23.10
2024-01-20T04:51:25.769Z,19.43
2024-01-20T04:53:53.421Z,22.97
2024-01-20T04:56:24.012Z,22.70
2024-01-20T04:58:56.439Z,25.13
2024-01-20T05:01:25.206Z,25.33
2024-01-20T05:03:54.425Z,29.57
2024-01-20T05:06:23.700Z,21.07
2024-01-20T05:08:52.645Z,22.40
2024-01-20T05:11:21.276Z,18.90
2024-01-20T05:13:49.910Z,22.57
2024-01-20T05:16:20.539Z,21.43
2024-01-20T05:18:50.227Z,19.43
2024-01-20T05:21:19.261Z,21.77
2024-01-20T05:23:48.119Z,20.80
2024-01-20T05:26:17.019Z,21.37
2024-01-20T05:28:45.898Z,19.90
2024-01-20T05:31:15.348Z,20.43
2024-01-20T05:33:45.610Z,20.97
2024-01-20T05:36:15.047Z,17.90
2024-01-20T05:38:43.860Z,19.03
2024-01-20T05:41:14.195Z,20.33
2024-01-20T05:43:42.971Z,22.57
2024-01-20T05:46:11.809Z,18.10
2024-01-20T05:48:40.580Z,17.20
2024-01-20T05:51:10.762Z,20.50
2024-01-20T05:53:39.395Z,22.53
2024-01-20T05:56:08.485Z,22.37
2024-01-20T05:58:37.110Z,24.60
2024-01-20T06:01:06.114Z,19.63
2024-01-20T06:03:34.850Z,23.57
2024-01-20T06:06:03.558Z,16.03
2024-01-20T06:08:33.909Z,21.43
2024-01-20T06:11:02.508Z,21.93
2024-01-20T06:13:31.326Z,21.03
2024-01-20T06:19:45.866Z,21.43
2024-01-20T06:22:14.546Z,19.00
2024-01-20T06:24:44.820Z,22.43
2024-01-20T06:27:14.159Z,24.33
2024-01-20T06:29:49.648Z,23.30
2024-01-20T06:32:18.802Z,24.70
2024-01-20T06:34:47.644Z,22.97
2024-01-20T06:37:16.425Z,22.83
2024-01-20T06:39:46.573Z,19.67
2024-01-20T06:42:16.247Z,20.87
2024-01-20T06:48:35.526Z,22.57
2024-01-20T06:51:04.808Z,23.80
2024-01-20T06:53:33.973Z,23.03
2024-01-20T06:56:04.025Z,19.60
2024-01-20T06:58:32.641Z,18.83
2024-01-20T07:01:01.343Z,20.93
2024-01-20T07:03:30.245Z,22.87
2024-01-20T07:06:02.195Z,20.87
2024-01-20T07:08:31.552Z,21.77
2024-01-20T07:11:00.177Z,20.05
2024-01-20T07:13:30.230Z,22.97
2024-01-20T07:15:58.857Z,23.17
2024-01-20T07:18:27.546Z,19.97
2024-01-20T07:20:56.313Z,20.27
2024-01-20T07:23:24.997Z,17.23
2024-01-20T07:25:53.701Z,21.73
2024-01-20T07:28:22.540Z,17.63
2024-01-20T07:30:52.723Z,21.23
2024-01-20T07:33:21.663Z,23.63
2024-01-20T07:35:50.296Z,15.87
2024-01-20T07:38:18.951Z,19.93
2024-01-20T07:40:47.560Z,23.07
2024-01-20T07:43:16.791Z,21.67
2024-01-20T07:45:45.469Z,24.37
2024-01-20T07:48:16.328Z,22.87
2024-01-20T07:50:45.032Z,22.60
2024-01-20T07:53:13.653Z,22.73
2024-01-20T07:55:42.404Z,18.33
2024-01-20T07:58:10.991Z,20.10
2024-01-20T08:00:39.903Z,17.70
2024-01-20T08:03:08.660Z,22.03
2024-01-20T08:05:39.026Z,19.60
2024-01-20T08:08:08.139Z,18.80
2024-01-20T08:10:36.706Z,18.65
2024-01-20T08:13:05.863Z,23.13
2024-01-20T08:15:34.524Z,20.23
2024-01-20T08:18:03.357Z,20.50
2024-01-20T08:20:32.132Z,24.80
2024-01-20T08:23:02.850Z,22.00
2024-01-20T08:25:31.544Z,19.87
2024-01-20T08:28:00.192Z,23.50
2024-01-20T08:30:29.157Z,21.03
2024-01-20T08:33:01.492Z,22.47
2024-01-20T08:35:32.024Z,19.98
2024-01-20T08:38:02.119Z,19.27
2024-01-20T08:40:30.826Z,21.37
2024-01-20T08:43:00.246Z,19.77
2024-01-20T08:45:28.937Z,21.53
2024-01-20T08:47:58.023Z,22.37
2024-01-20T08:50:26.730Z,21.07
2024-01-20T08:52:55.605Z,23.73
2024-01-20T08:55:29.410Z,20.23
2024-01-20T08:57:59.904Z,20.53
2024-01-20T09:00:29.366Z,22.93
2024-01-20T09:03:09.119Z,22.70
2024-01-20T09:05:39.513Z,21.77
2024-01-20T09:08:13.062Z,23.83
2024-01-20T09:10:48.149Z,21.33
2024-01-20T09:13:41.529Z,21.50
2024-01-20T09:16:23.275Z,19.50
2024-01-20T09:18:53.793Z,20.00
2024-01-20T09:21:22.925Z,18.33
2024-01-20T09:23:52.201Z,17.60
2024-01-20T09:26:22.421Z,19.57
2024-01-20T09:28:51.244Z,18.80
2024-01-20T09:31:20.493Z,20.10
2024-01-20T09:33:49.224Z,25.83
2024-01-20T09:36:18.022Z,19.30
2024-01-20T09:38:48.577Z,18.37
2024-01-20T09:41:17.458Z,22.17
2024-01-20T09:43:47.725Z,17.43
2024-01-20T09:46:29.632Z,18.80
2024-01-20T09:49:01.488Z,20.87
2024-01-20T09:51:41.355Z,20.03
2024-01-20T09:54:13.336Z,19.87
2024-01-20T09:57:05.455Z,22.13
2024-01-20T09:59:36.925Z,20.87
2024-01-20T10:02:06.943Z,22.57
2024-01-20T10:04:41.126Z,18.90
2024-01-20T10:07:11.932Z,19.77
2024-01-20T10:09:51.876Z,26.27
2024-01-20T10:12:35.339Z,20.77
2024-01-20T10:15:06.545Z,23.97
2024-01-20T10:17:39.802Z,23.80
2024-01-20T10:20:09.112Z,22.47
2024-01-20T10:22:37.874Z,19.90
2024-01-20T10:25:17.119Z,19.77
2024-01-20T10:27:51.398Z,20.87
2024-01-20T10:30:23.625Z,19.50
2024-01-20T10:33:14.256Z,21.20
2024-01-20T10:35:47.661Z,19.10
2024-01-20T10:38:21.940Z,19.33
2024-01-20T10:40:55.255Z,20.53
2024-01-20T10:43:25.353Z,18.97
2024-01-20T10:46:28.620Z,19.60
2024-01-20T10:49:02.511Z,21.20
2024-01-20T10:52:06.496Z,21.40
2024-01-20T10:55:31.381Z,17.43
2024-01-20T10:58:21.407Z,17.63
2024-01-20T11:01:39.595Z,19.73
2024-01-20T11:05:27.752Z,19.67
2024-01-20T11:12:27.863Z,17.53
2024-01-20T11:15:00.800Z,19.03
2024-01-20T11:17:30.621Z,17.60
2024-01-20T11:20:09.348Z,17.40
2024-01-20T11:22:42.393Z,18.73
2024-01-20T11:25:15.956Z,22.57
2024-01-20T11:27:50.596Z,19.63
2024-01-20T11:31:03.602Z,18.77
2024-01-20T11:33:35.761Z,19.87
2024-01-20T11:36:05.079Z,17.23
2024-01-20T11:38:35.122Z,21.33
2024-01-20T11:41:04.777Z,19.20
2024-01-20T11:43:35.233Z,20.20
2024-01-20T11:46:04.502Z,22.07
2024-01-20T11:48:33.991Z,25.93
2024-01-20T11:51:03.043Z,19.17
2024-01-20T11:53:31.772Z,20.93
2024-01-20T11:56:01.813Z,20.17
2024-01-20T11:58:31.637Z,20.73
2024-01-20T12:01:03.224Z,19.17
2024-01-20T12:03:37.743Z,21.77
2024-01-20T12:06:10.672Z,22.13
2024-01-20T12:08:45.763Z,23.03
2024-01-20T12:11:20.414Z,23.53
2024-01-20T12:13:49.103Z,20.23
2024-01-20T12:16:48.827Z,19.77
2024-01-20T12:19:20.951Z,21.80
2024-01-20T12:21:50.002Z,19.67
2024-01-20T12:40:38.953Z,19.37
2024-01-20T12:43:43.002Z,21.90
2024-01-20T12:46:29.673Z,18.07
2024-01-20T12:49:09.291Z,24.10
2024-01-20T12:51:42.998Z,17.57
2024-01-20T12:57:57.005Z,19.33
2024-01-20T13:01:02.499Z,20.10
2024-01-20T13:03:36.460Z,20.17
2024-01-20T13:10:17.139Z,24.27
2024-01-20T13:12:48.712Z,17.73
2024-01-20T13:22:41.418Z,21.07
2024-01-20T13:31:01.782Z,25.33
2024-01-20T13:49:50.914Z,24.03
2024-01-20T13:52:20.794Z,25.45
2024-01-20T13:54:49.486Z,28.20
2024-01-20T13:57:20.214Z,26.67
2024-01-20T13:59:48.860Z,23.87
2024-01-20T14:02:21.812Z,27.50
2024-01-20T14:16:23.787Z,32.53
2024-01-20T14:19:15.114Z,44.47
2024-01-20T14:22:21.823Z,38.00
2024-01-20T14:24:58.094Z,34.40
2024-01-20T14:27:39.850Z,41.20
2024-01-20T14:30:12.904Z,36.20
2024-01-20T14:32:40.574Z,29.47
2024-01-20T14:35:11.103Z,30.57
2024-01-20T14:37:40.219Z,34.40
2024-01-20T14:40:10.325Z,33.40
2024-01-20T14:42:38.977Z,37.23
2024-01-20T14:45:08.433Z,35.50
2024-01-20T14:47:37.298Z,37.80
2024-01-20T14:50:08.427Z,39.97
2024-01-20T14:52:38.806Z,27.37
2024-01-20T14:55:08.464Z,34.03
2024-01-20T14:57:36.958Z,33.20
2024-01-20T15:00:10.382Z,30.43
2024-01-20T15:02:39.245Z,33.90
2024-01-20T15:05:12.261Z,30.13
2024-01-20T15:07:51.750Z,32.20
2024-01-20T15:10:31.760Z,33.90
2024-01-20T15:13:35.419Z,30.67
2024-01-20T15:16:09.156Z,34.50
2024-01-20T15:18:39.830Z,33.00
2024-01-20T15:21:11.051Z,31.23
2024-01-20T15:23:41.512Z,35.20
2024-01-20T15:26:10.358Z,32.83
2024-01-20T15:28:39.006Z,33.73
2024-01-20T15:31:09.712Z,39.43
2024-01-20T15:33:38.752Z,33.87
2024-01-20T15:36:08.140Z,42.70
2024-01-20T15:38:37.366Z,37.47
2024-01-20T15:41:09.134Z,36.00
2024-01-20T15:43:44.175Z,37.30
2024-01-20T15:46:13.224Z,33.33
2024-01-20T15:48:43.757Z,41.47
2024-01-20T15:51:13.266Z,38.57
2024-01-20T15:53:50.121Z,42.17
2024-01-20T15:56:32.359Z,42.60
2024-01-20T15:59:10.693Z,39.53
2024-01-20T16:02:50.895Z,38.97
2024-01-20T16:14:24.622Z,38.27
2024-01-20T16:39:16.581Z,38.03
2024-01-20T20:04:42.660Z,26.83
2024-01-20T20:07:14.269Z,25.13
2024-01-20T20:09:43.231Z,25.67
2024-01-20T20:12:12.278Z,25.93
2024-01-20T20:14:59.630Z,24.80
2024-01-20T20:17:28.475Z,27.50
2024-01-20T20:19:57.293Z,25.70
2024-01-20T20:22:28.376Z,24.27
2024-01-20T20:24:57.390Z,24.40
2024-01-20T20:27:26.029Z,24.17
2024-01-20T20:29:54.804Z,27.70
2024-01-20T20:32:23.540Z,24.23
2024-01-20T20:34:54.550Z,24.67
2024-01-20T20:37:23.466Z,21.93
2024-01-20T20:39:54.218Z,23.93
2024-01-20T20:42:23.495Z,26.73
2024-01-20T20:44:54.829Z,28.70
2024-01-20T20:47:27.395Z,26.90
2024-01-20T20:49:56.066Z,23.10
2024-01-20T20:52:26.227Z,23.00
2024-01-20T20:54:56.782Z,24.33
2024-01-20T20:57:25.651Z,24.70
2024-01-20T21:00:01.134Z,24.93
2024-01-20T21:02:30.389Z,23.57
2024-01-20T21:05:03.993Z,26.37
2024-01-20T21:07:39.618Z,24.13
2024-01-20T21:10:12.683Z,22.07
2024-01-20T21:12:43.569Z,22.67
2024-01-20T21:15:29.452Z,23.17
2024-01-20T21:17:58.374Z,27.13
2024-01-20T21:20:27.452Z,25.83
2024-01-20T21:22:56.163Z,25.97
2024-01-20T21:25:30.800Z,24.43
2024-01-20T21:27:59.735Z,24.57
2024-01-20T21:30:29.659Z,25.80
2024-01-20T21:32:58.411Z,25.37
2024-01-20T21:35:27.363Z,29.17
2024-01-20T21:37:56.774Z,26.17
2024-01-20T21:40:27.709Z,28.67
2024-01-20T21:42:56.343Z,29.43
2024-01-20T21:45:24.929Z,29.27
2024-01-20T21:47:53.798Z,23.50
2024-01-20T21:50:22.751Z,25.53
2024-01-20T21:52:52.414Z,25.57
2024-01-20T21:55:21.265Z,26.53
2024-01-20T21:57:54.432Z,25.53
2024-01-20T22:00:25.367Z,25.40
2024-01-20T22:02:54.133Z,27.37
2024-01-20T22:05:24.517Z,24.50
2024-01-20T22:07:55.108Z,21.73
2024-01-20T22:10:23.709Z,22.50
2024-01-20T22:12:53.962Z,26.43
2024-01-20T22:15:23.118Z,25.30
2024-01-20T22:17:52.503Z,27.30
2024-01-20T22:20:21.316Z,25.73
2024-01-20T22:22:49.971Z,21.35
2024-01-20T22:25:18.788Z,23.93
2024-01-20T22:27:47.514Z,22.40
2024-01-20T22:30:17.735Z,22.13
2024-01-20T22:32:47.343Z,20.50
2024-01-20T22:35:15.953Z,23.55
2024-01-20T22:37:44.537Z,17.67
2024-01-20T22:40:15.956Z,16.83
2024-01-20T22:42:44.790Z,15.73
2024-01-20T22:45:13.888Z,17.87
2024-01-20T22:47:45.315Z,15.50
2024-01-20T22:50:14.357Z,15.03
2024-01-20T22:52:43.322Z,12.60
2024-01-20T22:55:12.799Z,14.20
2024-01-20T22:57:41.475Z,12.10
2024-01-20T23:00:14.422Z,12.33
2024-01-20T23:02:45.349Z,10.37
2024-01-20T23:05:14.323Z,9.23
2024-01-20T23:07:44.709Z,9.03
2024-01-20T23:10:13.559Z,6.97
2024-01-20T23:12:42.465Z,5.00
2024-01-20T23:15:11.977Z,6.20
2024-01-20T23:17:40.620Z,3.23
2024-01-20T23:20:12.012Z,5.37
2024-01-20T23:22:40.853Z,7.30
2024-01-20T23:25:10.598Z,7.50
2024-01-20T23:27:39.927Z,7.27
2024-01-20T23:30:10.108Z,9.00
2024-01-20T23:32:38.895Z,9.50
2024-01-20T23:35:10.168Z,5.57
2024-01-20T23:37:38.809Z,9.13
2024-01-20T23:40:08.103Z,9.70
2024-01-20T23:42:37.072Z,8.87
2024-01-20T23:45:06.392Z,9.77
2024-01-20T23:47:35.268Z,9.33
2024-01-20T23:50:04.110Z,11.57
2024-01-20T23:52:35.132Z,10.27
2024-01-20T23:55:04.470Z,8.37
2024-01-20T23:57:34.002Z,9.33
